createdAt,value
2018-11-20T00:01:47.134Z,6.77
2018-11-20T00:04:44.731Z,4.87
2018-11-20T00:07:32.327Z,5.63
2018-11-20T00:10:15.691Z,5.13
2018-11-20T00:13:19.523Z,5.80
2018-11-20T00:16:04.060Z,5.50
2018-11-20T00:19:02.004Z,5.67
2018-11-20T00:21:49.825Z,5.53
2018-11-20T00:24:38.273Z,6.10
2018-11-20T00:27:35.690Z,5.00
2018-11-20T00:30:24.962Z,7.03
2018-11-20T00:33:12.092Z,5.13
2018-11-20T00:36:03.321Z,5.60
2018-11-20T00:38:54.445Z,4.87
2018-11-20T00:41:38.564Z,5.73
2018-11-20T00:44:23.239Z,6.07
2018-11-20T00:47:10.687Z,5.63
2018-11-20T00:50:08.530Z,6.77
2018-11-20T00:53:05.802Z,6.50
2018-11-20T00:56:40.534Z,5.83
2018-11-20T00:59:35.460Z,7.00
2018-11-20T01:02:26.530Z,6.27
2018-11-20T01:05:14.128Z,6.83
2018-11-20T01:08:08.813Z,5.80
2018-11-20T01:10:56.553Z,6.13
2018-11-20T01:13:54.143Z,7.50
2018-11-20T01:16:32.866Z,5.93
2018-11-20T01:19:27.569Z,7.20
2018-11-20T01:22:14.685Z,8.27
2018-11-20T01:24:57.372Z,7.43
2018-11-20T01:27:48.615Z,7.30
2018-11-20T01:30:37.724Z,7.60
2018-11-20T01:33:41.686Z,8.60
2018-11-20T01:36:39.253Z,9.27
2018-11-20T01:39:27.652Z,14.97
2018-11-20T01:42:15.421Z,7.17
2018-11-20T01:45:02.983Z,9.17
2018-11-20T01:48:00.769Z,9.50
2018-11-20T01:50:38.623Z,9.63
2018-11-20T01:53:33.217Z,9.20
2018-11-20T01:56:14.591Z,10.03
2018-11-20T01:58:51.180Z,9.60
2018-11-20T02:01:38.221Z,10.40
2018-11-20T02:04:25.959Z,8.83
2018-11-20T02:07:13.133Z,9.30
2018-11-20T02:09:58.654Z,11.23
2018-11-20T02:12:59.402Z,11.77
2018-11-20T02:15:53.832Z,10.70
2018-11-20T02:18:41.041Z,10.37
2018-11-20T02:21:28.225Z,12.70
2018-11-20T02:24:05.597Z,10.87
2018-11-20T02:27:08.912Z,10.30
2018-11-20T02:30:03.286Z,9.10
2018-11-20T02:32:51.167Z,11.53
2018-11-20T02:35:32.548Z,10.00
2018-11-20T02:38:21.711Z,10.60
2018-11-20T02:41:01.612Z,11.30
2018-11-20T02:43:38.876Z,11.77
2018-11-20T02:46:26.462Z,10.30
2018-11-20T02:49:10.486Z,12.53
2018-11-20T02:51:57.296Z,14.60
2018-11-20T02:54:44.617Z,12.63
2018-11-20T02:57:31.805Z,13.90
2018-11-20T03:00:14.823Z,13.63
2018-11-20T03:03:15.544Z,14.83
2018-11-20T03:06:39.625Z,15.30
2018-11-20T03:09:33.733Z,16.03
2018-11-20T03:12:30.580Z,14.20
2018-11-20T03:15:33.686Z,16.60
2018-11-20T03:18:36.402Z,15.20
2018-11-20T03:21:15.712Z,16.33
2018-11-20T03:24:02.533Z,17.70
2018-11-20T03:26:42.210Z,19.53
2018-11-20T03:30:13.090Z,17.07
2018-11-20T03:33:03.452Z,17.47
2018-11-20T03:36:06.342Z,16.83
2018-11-20T03:39:03.878Z,17.97
2018-11-20T03:41:54.036Z,25.17
2018-11-20T03:44:44.115Z,20.70
2018-11-20T03:47:37.980Z,17.87
2018-11-20T03:50:25.644Z,18.57
2018-11-20T03:53:02.946Z,21.90
2018-11-20T03:55:53.425Z,17.17
2018-11-20T03:58:50.003Z,21.20
2018-11-20T04:01:36.717Z,21.70
2018-11-20T04:04:43.522Z,19.30
2018-11-20T04:07:42.733Z,20.80
2018-11-20T04:10:49.399Z,22.70
2018-11-20T04:13:43.161Z,19.60
2018-11-20T04:16:40.721Z,19.77
2018-11-20T04:19:27.259Z,33.10
2018-11-20T04:22:17.612Z,19.33
2018-11-20T04:25:11.152Z,21.33
2018-11-20T04:28:07.470Z,18.10
2018-11-20T04:31:37.823Z,23.00
2018-11-20T04:34:34.449Z,20.67
2018-11-20T04:37:28.883Z,25.87
2018-11-20T04:40:17.064Z,17.23
2018-11-20T04:43:12.322Z,17.37
2018-11-20T04:45:58.866Z,17.50
2018-11-20T04:48:46.934Z,17.93
2018-11-20T04:51:33.383Z,16.60
2018-11-20T04:54:23.790Z,19.33
2018-11-20T04:57:19.383Z,19.90
2018-11-20T05:00:09.614Z,15.67
2018-11-20T05:03:16.051Z,20.30
2018-11-20T05:06:02.595Z,17.50
2018-11-20T05:08:50.847Z,18.57
2018-11-20T05:11:37.400Z,18.43
2018-11-20T05:14:24.316Z,16.53
2018-11-20T05:17:17.884Z,17.07
2018-11-20T05:20:08.142Z,14.00
2018-11-20T05:22:50.889Z,13.67
2018-11-20T05:25:41.498Z,17.03
2018-11-20T05:28:30.544Z,16.13
2018-11-20T05:31:16.864Z,16.80
2018-11-20T05:33:56.601Z,17.70
2018-11-20T05:36:50.169Z,17.43
2018-11-20T05:39:28.787Z,18.97
2018-11-20T05:42:28.688Z,18.47
2018-11-20T05:45:16.559Z,19.70
2018-11-20T05:48:09.874Z,16.63
2018-11-20T05:51:10.105Z,16.33
2018-11-20T05:53:58.525Z,15.00
2018-11-20T05:56:34.725Z,16.27
2018-11-20T05:59:21.156Z,24.80
2018-11-20T06:02:14.470Z,17.13
2018-11-20T06:05:01.893Z,17.80
2018-11-20T06:07:55.631Z,17.10
2018-11-20T06:10:33.915Z,17.53
2018-11-20T06:13:30.247Z,24.90
2018-11-20T06:16:23.661Z,16.77
2018-11-20T06:19:10.044Z,16.17
2018-11-20T06:21:50.026Z,19.90
2018-11-20T06:24:34.409Z,17.70
2018-11-20T06:27:24.836Z,19.97
2018-11-20T06:30:15.765Z,19.47
2018-11-20T06:33:14.731Z,17.20
2018-11-20T06:36:01.349Z,17.57
2018-11-20T06:38:43.231Z,15.90
2018-11-20T06:41:29.997Z,21.70
2018-11-20T06:44:16.827Z,18.20
2018-11-20T06:47:03.129Z,18.10
2018-11-20T06:49:46.744Z,20.33
2018-11-20T06:52:33.565Z,18.60
2018-11-20T06:55:20.037Z,19.20
2018-11-20T06:58:14.619Z,18.67
2018-11-20T07:01:10.442Z,21.40
2018-11-20T07:04:10.353Z,32.37
2018-11-20T07:06:56.416Z,19.47
2018-11-20T07:09:42.663Z,23.17
2018-11-20T07:12:29.270Z,19.60
2018-11-20T07:15:16.032Z,18.60
2018-11-20T07:18:18.809Z,17.40
2018-11-20T07:21:08.407Z,19.57
2018-11-20T07:23:59.592Z,20.53
2018-11-20T07:26:44.947Z,26.30
2018-11-20T07:29:29.174Z,17.77
2018-11-20T07:32:14.546Z,22.00
2018-11-20T07:35:02.256Z,19.60
2018-11-20T07:37:59.183Z,22.00
2018-11-20T07:40:55.768Z,25.30
2018-11-20T07:43:55.802Z,25.20
2018-11-20T07:46:42.263Z,20.83
2018-11-20T07:49:36.056Z,23.80
2018-11-20T07:52:32.721Z,24.30
2018-11-20T07:55:17.302Z,23.30
2018-11-20T07:58:07.940Z,23.43
2018-11-20T08:00:55.637Z,21.53
2018-11-20T08:03:43.690Z,21.03
2018-11-20T08:06:50.274Z,21.73
2018-11-20T08:09:38.164Z,20.13
2018-11-20T08:12:31.620Z,19.77
2018-11-20T08:15:28.671Z,17.10
2018-11-20T08:18:19.032Z,16.70
2018-11-20T08:21:19.128Z,18.73
2018-11-20T08:24:10.128Z,23.97
2018-11-20T08:26:57.762Z,19.90
2018-11-20T08:29:45.688Z,23.83
2018-11-20T08:32:32.444Z,19.07
2018-11-20T08:35:35.459Z,24.03
2018-11-20T08:38:25.732Z,22.70
2018-11-20T08:41:31.968Z,17.90
2018-11-20T08:44:27.033Z,20.87
2018-11-20T08:47:19.901Z,25.63
2018-11-20T08:50:07.455Z,16.77
2018-11-20T08:52:55.053Z,21.10
2018-11-20T08:56:01.133Z,24.80
2018-11-20T08:58:47.257Z,20.70
2018-11-20T09:01:43.758Z,26.07
2018-11-20T09:04:37.154Z,29.17
2018-11-20T09:07:34.094Z,21.43
2018-11-20T09:10:30.615Z,28.67
2018-11-20T09:13:16.878Z,21.53
2018-11-20T09:15:57.328Z,22.63
2018-11-20T09:18:53.897Z,22.77
2018-11-20T09:21:45.140Z,21.43
2018-11-20T09:24:33.095Z,23.57
2018-11-20T09:27:19.403Z,25.13
2018-11-20T09:30:06.541Z,17.90
2018-11-20T09:32:59.729Z,20.97
2018-11-20T09:35:45.984Z,23.30
2018-11-20T09:38:26.884Z,34.20
2018-11-20T09:41:20.759Z,19.77
2018-11-20T09:44:13.190Z,24.77
2018-11-20T09:47:03.785Z,21.47
2018-11-20T09:49:50.447Z,25.67
2018-11-20T09:52:38.045Z,20.57
2018-11-20T09:55:46.937Z,23.53
2018-11-20T09:58:34.579Z,21.90
2018-11-20T10:01:28.454Z,23.87
2018-11-20T10:04:16.057Z,22.07
2018-11-20T10:07:19.171Z,22.73
2018-11-20T10:10:16.741Z,24.03
2018-11-20T10:13:10.718Z,20.00
2018-11-20T10:16:07.980Z,25.47
2018-11-20T10:19:01.854Z,22.13
2018-11-20T10:21:58.556Z,24.67
2018-11-20T10:24:58.512Z,22.07
2018-11-20T10:27:45.506Z,25.03
2018-11-20T10:30:32.126Z,20.50
2018-11-20T10:33:18.660Z,19.97
2018-11-20T10:36:04.784Z,22.90
2018-11-20T10:38:51.464Z,21.27
2018-11-20T10:41:54.283Z,24.33
2018-11-20T10:44:59.813Z,22.60
2018-11-20T10:47:46.030Z,23.50
2018-11-20T10:50:33.022Z,24.67
2018-11-20T10:53:19.789Z,24.20
2018-11-20T10:56:06.732Z,22.97
2018-11-20T10:58:54.351Z,24.50
2018-11-20T11:01:40.743Z,23.43
2018-11-20T11:05:10.474Z,25.10
2018-11-20T11:07:57.151Z,21.23
2018-11-20T11:10:43.077Z,23.97
2018-11-20T11:13:36.888Z,21.47
2018-11-20T11:16:27.593Z,21.43
2018-11-20T11:19:15.511Z,19.17
2018-11-20T11:22:09.230Z,22.37
2018-11-20T11:24:55.714Z,19.80
2018-11-20T11:27:43.283Z,22.87
2018-11-20T11:30:30.102Z,21.67
2018-11-20T11:33:16.549Z,23.57
2018-11-20T11:36:02.984Z,22.30
2018-11-20T11:38:57.722Z,21.73
2018-11-20T11:41:54.012Z,20.10
2018-11-20T11:44:40.191Z,26.53
2018-11-20T11:47:22.093Z,21.97
2018-11-20T11:50:08.166Z,20.60
2018-11-20T11:53:00.272Z,20.20
2018-11-20T11:55:47.931Z,28.50
2018-11-20T11:58:34.703Z,19.83
2018-11-20T12:04:22.856Z,22.03
2018-11-20T12:07:13.734Z,29.60
2018-11-20T12:09:51.065Z,24.57
2018-11-20T12:12:45.076Z,21.37
2018-11-20T12:15:38.893Z,18.77
2018-11-20T12:18:20.344Z,21.93
2018-11-20T12:21:23.303Z,22.60
2018-11-20T12:24:13.739Z,28.00
2018-11-20T12:27:11.889Z,24.63
2018-11-20T12:29:57.418Z,33.20
2018-11-20T12:32:43.958Z,22.50
2018-11-20T12:35:33.476Z,27.03
2018-11-20T12:38:27.745Z,22.90
2018-11-20T12:41:14.534Z,24.50
2018-11-20T12:44:05.885Z,21.60
2018-11-20T12:47:15.007Z,22.87
2018-11-20T12:50:05.266Z,20.10
2018-11-20T12:52:55.112Z,25.63
2018-11-20T12:55:48.522Z,30.37
2018-11-20T12:58:37.143Z,28.83
2018-11-20T13:01:30.650Z,35.80
2018-11-20T13:04:21.143Z,24.10
2018-11-20T13:07:18.447Z,23.47
2018-11-20T13:09:55.747Z,28.33
2018-11-20T13:12:56.554Z,29.70
2018-11-20T13:15:42.187Z,30.07
2018-11-20T13:18:22.124Z,21.50
2018-11-20T13:21:28.828Z,27.33
2018-11-20T13:24:16.464Z,23.00
2018-11-20T13:27:06.765Z,30.07
2018-11-20T13:29:52.882Z,21.90
2018-11-20T13:32:50.587Z,24.30
2018-11-20T13:35:36.932Z,26.40
2018-11-20T13:38:29.319Z,41.80
2018-11-20T13:42:06.703Z,31.60
2018-11-20T13:45:18.466Z,35.73
2018-11-20T13:48:00.717Z,29.40
2018-11-20T13:50:54.270Z,25.27
2018-11-20T13:53:38.732Z,27.23
2018-11-20T13:56:44.263Z,24.93
2018-11-20T13:59:47.144Z,23.73
2018-11-20T14:02:35.233Z,27.53
2018-11-20T14:05:35.293Z,30.37
2018-11-20T14:08:13.530Z,25.00
2018-11-20T14:11:09.841Z,22.83
2018-11-20T14:14:12.878Z,27.23
2018-11-20T14:17:06.259Z,25.67
2018-11-20T14:20:06.960Z,22.50
2018-11-20T14:22:57.824Z,31.53
2018-11-20T14:25:51.077Z,28.77
2018-11-20T14:28:29.566Z,26.80
2018-11-20T14:31:25.186Z,24.00
2018-11-20T14:34:24.304Z,28.60
2018-11-20T14:37:23.084Z,28.90
2018-11-20T14:40:12.365Z,27.17
2018-11-20T14:43:06.156Z,27.70
2018-11-20T14:45:46.172Z,22.73
2018-11-20T14:48:47.909Z,23.90
2018-11-20T14:51:38.878Z,25.93
2018-11-20T14:54:25.695Z,22.37
2018-11-20T14:57:12.296Z,24.10
2018-11-20T15:00:16.907Z,25.10
2018-11-20T15:03:20.283Z,31.03
2018-11-20T15:06:07.298Z,22.20
2018-11-20T15:09:01.070Z,22.97
2018-11-20T15:11:45.213Z,22.63
2018-11-20T15:14:34.205Z,23.57
2018-11-20T15:17:10.475Z,19.00
2018-11-20T15:19:58.045Z,19.57
2018-11-20T15:22:57.626Z,20.50
2018-11-20T15:26:04.130Z,20.37
2018-11-20T15:29:06.258Z,21.87
2018-11-20T15:32:03.818Z,20.60
2018-11-20T15:34:57.753Z,17.87
2018-11-20T15:37:44.523Z,15.23
2018-11-20T15:40:38.367Z,15.00
2018-11-20T15:43:26.269Z,16.80
2018-11-20T15:46:03.603Z,15.27
2018-11-20T15:48:51.558Z,10.83
2018-11-20T15:51:34.713Z,20.23
2018-11-20T15:54:21.011Z,10.90
2018-11-20T15:57:21.168Z,9.30
2018-11-20T16:00:11.246Z,8.90
2018-11-20T16:03:01.577Z,11.80
2018-11-20T16:05:50.126Z,8.10
2018-11-20T16:08:39.773Z,8.47
2018-11-20T16:11:30.847Z,8.17
2018-11-20T16:14:17.997Z,8.40
2018-11-20T16:17:16.958Z,8.90
2018-11-20T16:20:07.352Z,7.83
2018-11-20T16:22:53.103Z,8.57
2018-11-20T16:25:46.355Z,7.67
2018-11-20T16:28:29.774Z,8.53
2018-11-20T16:31:23.509Z,7.80
2018-11-20T16:34:15.610Z,11.30
2018-11-20T16:37:01.978Z,7.40
2018-11-20T16:39:48.256Z,7.67
2018-11-20T16:42:33.868Z,8.70
2018-11-20T16:45:20.656Z,7.37
2018-11-20T16:48:04.709Z,8.07
2018-11-20T16:50:51.508Z,7.10
2018-11-20T16:53:34.624Z,7.87
2018-11-20T16:56:28.013Z,6.90
2018-11-20T16:59:07.244Z,7.83
2018-11-20T17:01:53.092Z,8.07
2018-11-20T17:04:55.587Z,7.67
2018-11-20T17:07:47.150Z,7.30
2018-11-20T17:10:27.244Z,7.33
2018-11-20T17:13:16.301Z,8.43
2018-11-20T17:16:04.211Z,8.53
2018-11-20T17:18:52.110Z,8.00
2018-11-20T17:21:38.759Z,7.97
2018-11-20T17:24:29.006Z,11.00
2018-11-20T17:27:28.612Z,9.50
2018-11-20T17:30:27.762Z,10.03
2018-11-20T17:33:15.502Z,9.53
2018-11-20T17:36:02.089Z,10.10
2018-11-20T17:39:07.923Z,10.23
2018-11-20T17:41:58.670Z,8.50
2018-11-20T17:44:53.521Z,11.20
2018-11-20T17:47:30.474Z,8.70
2018-11-20T17:50:17.212Z,10.30
2018-11-20T17:53:04.954Z,10.43
2018-11-20T17:55:52.611Z,7.90
2018-11-20T17:58:46.104Z,7.90
2018-11-20T18:01:39.377Z,20.07
2018-11-20T18:04:30.166Z,11.30
2018-11-20T18:07:30.023Z,10.33
2018-11-20T18:10:16.621Z,14.37
2018-11-20T18:13:11.617Z,9.40
2018-11-20T18:16:05.493Z,11.17
2018-11-20T18:18:52.179Z,10.50
2018-11-20T18:21:40.275Z,10.00
2018-11-20T18:24:28.135Z,9.87
2018-11-20T18:27:24.837Z,10.60
2018-11-20T18:30:12.072Z,14.63
2018-11-20T18:33:02.213Z,11.90
2018-11-20T18:35:49.076Z,15.33
2018-11-20T18:38:43.047Z,11.70
2018-11-20T18:41:42.648Z,9.87
2018-11-20T18:44:39.035Z,12.20
2018-11-20T18:47:23.985Z,10.93
2018-11-20T18:50:10.415Z,10.90
2018-11-20T18:53:06.941Z,13.47
2018-11-20T18:56:01.790Z,10.03
2018-11-20T18:58:47.857Z,14.43
2018-11-20T19:01:44.731Z,15.13
2018-11-20T19:04:41.277Z,27.23
2018-11-20T19:07:28.058Z,11.73
2018-11-20T19:10:15.698Z,13.53
2018-11-20T19:13:15.399Z,19.20
2018-11-20T19:16:03.679Z,16.40
2018-11-20T19:18:50.835Z,10.77
2018-11-20T19:21:37.103Z,13.00
2018-11-20T19:24:40.537Z,15.00
2018-11-20T19:27:31.542Z,15.30
2018-11-20T19:30:31.769Z,13.90
2018-11-20T19:33:19.701Z,13.27
2018-11-20T19:36:10.387Z,14.73
2018-11-20T19:39:07.767Z,14.83
2018-11-20T19:41:55.694Z,15.80
2018-11-20T19:44:45.433Z,16.07
2018-11-20T19:47:39.497Z,13.80
2018-11-20T19:50:28.605Z,13.30
2018-11-20T19:53:28.753Z,12.03
2018-11-20T19:56:15.383Z,13.73
2018-11-20T19:59:13.896Z,17.67
2018-11-20T20:02:01.565Z,14.30
2018-11-20T20:04:48.361Z,14.10
2018-11-20T20:07:34.986Z,14.63
2018-11-20T20:10:30.916Z,14.40
2018-11-20T20:13:15.157Z,17.10
2018-11-20T20:16:22.016Z,16.57
2018-11-20T20:19:12.675Z,15.80
2018-11-20T20:21:56.155Z,20.27
2018-11-20T20:24:42.674Z,13.57
2018-11-20T20:27:29.219Z,14.57
2018-11-20T20:30:29.510Z,16.97
2018-11-20T20:33:17.231Z,15.87
2018-11-20T20:36:03.163Z,17.87
2018-11-20T20:38:58.712Z,19.50
2018-11-20T20:41:59.145Z,15.03
2018-11-20T20:44:50.137Z,18.53
2018-11-20T20:47:41.079Z,16.47
2018-11-20T20:50:35.851Z,16.80
2018-11-20T20:53:37.840Z,17.20
2018-11-20T20:56:29.035Z,13.83
2018-11-20T20:59:24.159Z,17.97
2018-11-20T21:02:10.491Z,15.87
2018-11-20T21:04:56.387Z,17.77
2018-11-20T21:08:02.586Z,15.90
2018-11-20T21:11:05.387Z,16.67
2018-11-20T21:13:51.821Z,17.10
2018-11-20T21:16:42.104Z,16.80
2018-11-20T21:19:48.318Z,18.20
2018-11-20T21:22:55.192Z,18.77
2018-11-20T21:25:42.238Z,79.93
2018-11-20T21:28:39.026Z,16.13
2018-11-20T21:31:36.515Z,17.23
2018-11-20T21:34:24.108Z,16.07
2018-11-20T21:37:17.782Z,20.03
2018-11-20T21:40:04.409Z,17.53
2018-11-20T21:42:51.039Z,14.80
2018-11-20T21:45:37.830Z,15.03
2018-11-20T21:48:37.593Z,16.40
2018-11-20T21:51:28.226Z,17.10
2018-11-20T21:54:14.620Z,18.50
2018-11-20T21:57:04.899Z,20.17
2018-11-20T22:00:08.768Z,15.27
2018-11-20T22:03:13.554Z,16.73
2018-11-20T22:06:06.906Z,18.27
2018-11-20T22:09:09.990Z,18.80
2018-11-20T22:12:03.953Z,16.40
2018-11-20T22:14:51.851Z,14.47
2018-11-20T22:17:39.114Z,14.90
2018-11-20T22:20:29.593Z,14.07
2018-11-20T22:23:16.211Z,15.37
2018-11-20T22:26:03.831Z,14.87
2018-11-20T22:29:06.895Z,16.90
2018-11-20T22:31:53.395Z,15.50
2018-11-20T22:34:41.275Z,19.30
2018-11-20T22:37:29.011Z,13.40
2018-11-20T22:40:15.863Z,18.10
2018-11-20T22:43:09.539Z,14.40
2018-11-20T22:46:01.988Z,13.33
2018-11-20T22:48:55.291Z,12.13
2018-11-20T22:51:58.092Z,13.47
2018-11-20T22:54:48.876Z,11.73
2018-11-20T22:57:39.714Z,11.90
2018-11-20T23:00:38.830Z,14.03
2018-11-20T23:03:25.320Z,12.27
2018-11-20T23:06:17.679Z,12.60
2018-11-20T23:08:46.405Z,13.90
2018-11-20T23:11:15.251Z,15.07
2018-11-20T23:13:44.124Z,13.37
2018-11-20T23:16:12.580Z,13.97
2018-11-20T23:18:41.804Z,12.13
2018-11-20T23:21:10.272Z,12.57
2018-11-20T23:23:39.440Z,14.40
2018-11-20T23:26:08.387Z,18.50
2018-11-20T23:28:36.828Z,10.70
2018-11-20T23:31:05.784Z,13.33
2018-11-20T23:33:34.886Z,14.47
2018-11-20T23:36:03.612Z,13.17
2018-11-20T23:38:32.091Z,15.48
2018-11-20T23:41:00.511Z,14.40
2018-11-20T23:43:29.611Z,13.13
2018-11-20T23:45:58.371Z,17.50
2018-11-20T23:48:27.186Z,13.20
2018-11-20T23:50:56.530Z,14.83
2018-11-20T23:53:25.286Z,18.00
2018-11-20T23:55:54.106Z,14.97
2018-11-20T23:58:23.780Z,14.07
